EGNX/EMA METAR and TAF weather

Enter ICAO airport designator
Station Type Date Time Source
EGNX METAR 2022/06/30 14:20 UTC NOAA

EGNX 301420Z 14006KT 100V190 9999 SCT046 19/06 Q1010


Station Type Date Time Source
EGNX Decoded METAR 2022/06/30 14:20 UTC NOAA

East Midlands, United Kingdom (EGNX) 52-50N 001-20W
Jun 30, 2022 - 10:20 AM EDT / 2022.06.30 1420 UTC
Wind: from the SE (140 degrees) at 7 MPH (6 KT) (direction variable):0
Visibility: greater than 7 mile(s):0
Sky conditions: partly cloudy
Temperature: 66 F (19 C)
Dew Point: 42 F (6 C)
Relative Humidity: 42%
Pressure (altimeter): 29.83 in. Hg (1010 hPa)
ob: EGNX 301420Z 14006KT 100V190 9999 SCT046 19/06 Q1010
cycle: 14

Station Type Date Time Source
EGNX TAF 2022/06/30 12:09 UTC NOAA

TAF EGNX 301052Z 3012/0112 21008KT 9999 SCT045
TEMPO 3012/3024 7000 SHRA PROB30
TEMPO 3012/3020 2000 +SHRA +TSRAGS PROB30
TEMPO 0100/0105 2000 +SHRA BKN014 PROB30
TEMPO 0108/0110 7000 SHRA
TEMPO 0110/0112 7000 SHRA PROB30
TEMPO 0110/0112 4000 +SHRA

Example: see airport list